Time;durP1;ratioP1;P1;durP2;ratioP2;P2;SDS_P1;SDS_P2;PMS_P1;PMS_P2;Temp;Humidity;BMP_temperature;BMP_pressure;BME280_temperature;BME280_humidity;BME280_pressure;Samples;Min_cycle;Max_cycle;Signal;HPM_P1;HPM_P2
2022/11/13 00:00:00;;;;;;;1.1;1.1;;;;;;;8.7;100.0;102470;;;;
2022/11/13 00:01:10;;;;;;;1.1;1.1;;;;;;;8.7;100.0;102470;;;;
2022/11/13 00:02:00;;;;;;;1.1;1.1;;;;;;;8.7;100.0;102470;;;;
2022/11/13 00:03:00;;;;;;;1.1;1.1;;;;;;;8.8;100.0;102470;;;;
2022/11/13 00:04:00;;;;;;;1.1;1.1;;;;;;;8.8;100.0;102470;;;;
2022/11/13 00:05:00;;;;;;;1.1;1.1;;;;;;;8.9;100.0;102470;;;;
2022/11/13 00:06:00;;;;;;;1.1;1.1;;;;;;;8.9;100.0;102470;;;;
2022/11/13 00:07:00;;;;;;;1.1;1.1;;;;;;;8.9;100.0;102460;;;;
2022/11/13 00:08:00;;;;;;;1.1;1.1;;;;;;;8.9;100.0;102460;;;;
2022/11/13 00:09:00;;;;;;;1.1;1.1;;;;;;;8.8;100.0;102470;;;;
2022/11/13 00:10:00;;;;;;;1.1;1.1;;;;;;;8.8;100.0;102470;;;;
2022/11/13 00:11:10;;;;;;;1.1;1.1;;;;;;;8.7;100.0;102470;;;;
2022/11/13 00:12:00;;;;;;;1.1;1.1;;;;;;;8.7;100.0;102470;;;;
2022/11/13 00:13:00;;;;;;;1.1;1.1;;;;;;;8.8;100.0;102460;;;;
2022/11/13 00:14:00;;;;;;;1.1;1.1;;;;;;;8.8;100.0;102460;;;;
2022/11/13 00:15:00;;;;;;;1.1;1.1;;;;;;;8.8;100.0;102470;;;;
2022/11/13 00:16:02;;;;;;;1.8;1.8;;;;;;;8.8;100.0;102470;;;;
2022/11/13 00:17:00;;;;;;;1.8;1.8;;;;;;;8.7;100.0;102460;;;;
2022/11/13 00:18:01;;;;;;;1.8;1.8;;;;;;;8.7;100.0;102460;;;;
2022/11/13 00:19:00;;;;;;;1.8;1.8;;;;;;;8.8;100.0;102460;;;;
2022/11/13 00:20:00;;;;;;;1.8;1.8;;;;;;;8.8;100.0;102460;;;;
2022/11/13 00:21:04;;;;;;;1.8;1.8;;;;;;;8.8;100.0;102460;;;;
2022/11/13 00:22:00;;;;;;;1.8;1.8;;;;;;;8.8;100.0;102460;;;;
2022/11/13 00:23:00;;;;;;;1.8;1.8;;;;;;;8.7;100.0;102450;;;;
2022/11/13 00:24:00;;;;;;;1.8;1.8;;;;;;;8.7;100.0;102450;;;;
2022/11/13 00:25:00;;;;;;;1.8;1.8;;;;;;;8.7;100.0;102450;;;;
2022/11/13 00:26:08;;;;;;;1.8;1.8;;;;;;;8.7;100.0;102450;;;;
2022/11/13 00:27:00;;;;;;;1.8;1.8;;;;;;;8.6;100.0;102450;;;;
2022/11/13 00:28:00;;;;;;;1.8;1.8;;;;;;;8.6;100.0;102450;;;;
2022/11/13 00:29:01;;;;;;;1.8;1.8;;;;;;;8.6;100.0;102450;;;;
2022/11/13 00:30:00;;;;;;;1.8;1.8;;;;;;;8.6;100.0;102450;;;;
2022/11/13 00:31:00;;;;;;;1.8;1.8;;;;;;;8.6;100.0;102440;;;;
2022/11/13 00:32:00;;;;;;;1.8;1.8;;;;;;;8.6;100.0;102440;;;;
2022/11/13 00:33:00;;;;;;;1.8;1.8;;;;;;;8.5;100.0;102440;;;;
2022/11/13 00:34:10;;;;;;;1.8;1.8;;;;;;;8.5;100.0;102440;;;;
2022/11/13 00:35:00;;;;;;;1.8;1.8;;;;;;;8.6;100.0;102440;;;;
2022/11/13 00:36:00;;;;;;;1.2;1.2;;;;;;;8.6;100.0;102440;;;;
2022/11/13 00:37:00;;;;;;;1.2;1.2;;;;;;;8.6;100.0;102440;;;;
2022/11/13 00:38:00;;;;;;;1.2;1.2;;;;;;;8.6;100.0;102440;;;;
2022/11/13 00:39:00;;;;;;;1.2;1.2;;;;;;;8.6;100.0;102430;;;;
2022/11/13 00:40:00;;;;;;;1.2;1.2;;;;;;;8.6;100.0;102430;;;;
2022/11/13 00:41:00;;;;;;;1.2;1.2;;;;;;;8.6;100.0;102430;;;;
2022/11/13 00:42:00;;;;;;;1.2;1.2;;;;;;;8.6;100.0;102430;;;;
2022/11/13 00:43:00;;;;;;;1.2;1.2;;;;;;;8.5;100.0;102430;;;;
2022/11/13 00:44:00;;;;;;;1.2;1.2;;;;;;;8.5;100.0;102430;;;;
2022/11/13 00:45:00;;;;;;;1.2;1.2;;;;;;;8.5;100.0;102430;;;;
2022/11/13 00:46:00;;;;;;;1.2;1.2;;;;;;;8.5;100.0;102430;;;;
2022/11/13 00:47:00;;;;;;;1.2;1.2;;;;;;;8.4;100.0;102430;;;;
2022/11/13 00:48:00;;;;;;;1.2;1.2;;;;;;;8.4;100.0;102430;;;;
2022/11/13 00:49:00;;;;;;;1.2;1.2;;;;;;;8.4;100.0;102430;;;;
2022/11/13 00:50:00;;;;;;;1.2;1.2;;;;;;;8.4;100.0;102430;;;;
2022/11/13 00:51:00;;;;;;;1.2;1.2;;;;;;;8.4;100.0;102430;;;;
2022/11/13 00:52:01;;;;;;;1.2;1.2;;;;;;;8.4;100.0;102430;;;;
2022/11/13 00:53:00;;;;;;;1.2;1.2;;;;;;;8.3;100.0;102430;;;;
2022/11/13 00:54:00;;;;;;;1.2;1.2;;;;;;;8.3;100.0;102430;;;;
2022/11/13 00:55:00;;;;;;;1.5;1.5;;;;;;;8.3;100.0;102420;;;;
2022/11/13 00:56:00;;;;;;;1.5;1.5;;;;;;;8.3;100.0;102420;;;;
2022/11/13 00:57:00;;;;;;;1.5;1.5;;;;;;;8.3;100.0;102420;;;;
2022/11/13 00:58:00;;;;;;;1.5;1.5;;;;;;;8.3;100.0;102420;;;;
2022/11/13 00:59:00;;;;;;;1.5;1.5;;;;;;;8.3;100.0;102420;;;;
2022/11/13 01:00:00;;;;;;;1.5;1.5;;;;;;;8.3;100.0;102420;;;;
2022/11/13 01:01:09;;;;;;;1.5;1.5;;;;;;;8.2;100.0;102420;;;;
2022/11/13 01:02:00;;;;;;;1.5;1.5;;;;;;;8.2;100.0;102420;;;;
2022/11/13 01:03:00;;;;;;;1.5;1.5;;;;;;;8.3;100.0;102420;;;;
2022/11/13 01:04:00;;;;;;;1.5;1.5;;;;;;;8.3;100.0;102420;;;;
2022/11/13 01:05:00;;;;;;;1.5;1.5;;;;;;;8.2;100.0;102420;;;;
2022/11/13 01:06:00;;;;;;;1.5;1.5;;;;;;;8.2;100.0;102420;;;;
2022/11/13 01:07:00;;;;;;;1.5;1.5;;;;;;;8.2;100.0;102420;;;;
2022/11/13 01:08:00;;;;;;;1.5;1.5;;;;;;;8.2;100.0;102420;;;;
2022/11/13 01:09:00;;;;;;;1.5;1.5;;;;;;;8.3;100.0;102420;;;;
2022/11/13 01:10:00;;;;;;;1.5;1.5;;;;;;;8.3;100.0;102420;;;;
2022/11/13 01:11:06;;;;;;;1.5;1.5;;;;;;;8.2;100.0;102420;;;;
2022/11/13 01:12:00;;;;;;;1.5;1.5;;;;;;;8.2;100.0;102420;;;;
2022/11/13 01:13:00;;;;;;;1.5;1.5;;;;;;;8.2;100.0;102410;;;;
2022/11/13 01:14:00;;;;;;;1.5;1.5;;;;;;;8.2;100.0;102410;;;;
2022/11/13 01:15:00;;;;;;;1.5;1.5;;;;;;;8.2;100.0;102410;;;;
2022/11/13 01:16:03;;;;;;;1.5;1.5;;;;;;;8.2;100.0;102410;;;;
2022/11/13 01:17:00;;;;;;;1.5;1.5;;;;;;;8.2;100.0;102410;;;;
2022/11/13 01:18:00;;;;;;;1.5;1.5;;;;;;;8.2;100.0;102410;;;;
2022/11/13 01:19:00;;;;;;;1.5;1.5;;;;;;;8.1;100.0;102420;;;;
2022/11/13 01:20:00;;;;;;;1.5;1.5;;;;;;;8.1;100.0;102420;;;;
2022/11/13 01:21:02;;;;;;;1.5;1.5;;;;;;;8.3;100.0;102420;;;;
2022/11/13 01:22:00;;;;;;;1.5;1.5;;;;;;;8.3;100.0;102420;;;;
2022/11/13 01:23:00;;;;;;;1.5;1.5;;;;;;;8.2;100.0;102410;;;;
2022/11/13 01:24:00;;;;;;;1.5;1.5;;;;;;;8.2;100.0;102410;;;;
2022/11/13 01:25:00;;;;;;;1.5;1.5;;;;;;;8.4;100.0;102410;;;;
2022/11/13 01:26:04;;;;;;;1.5;1.5;;;;;;;8.4;100.0;102410;;;;
2022/11/13 01:27:00;;;;;;;1.5;1.5;;;;;;;8.1;100.0;102410;;;;
2022/11/13 01:28:00;;;;;;;1.5;1.5;;;;;;;8.1;100.0;102410;;;;
2022/11/13 01:29:00;;;;;;;1.5;1.5;;;;;;;8.2;100.0;102410;;;;
2022/11/13 01:30:00;;;;;;;1.5;1.5;;;;;;;8.2;100.0;102410;;;;
2022/11/13 01:31:02;;;;;;;1.5;1.5;;;;;;;8.2;100.0;102410;;;;
2022/11/13 01:32:00;;;;;;;1.5;1.5;;;;;;;8.2;100.0;102410;;;;
2022/11/13 01:33:00;;;;;;;1.5;1.5;;;;;;;8.2;100.0;102410;;;;
2022/11/13 01:34:00;;;;;;;1.5;1.5;;;;;;;8.2;100.0;102410;;;;
2022/11/13 01:35:00;;;;;;;1.5;1.5;;;;;;;8.2;100.0;102400;;;;
2022/11/13 01:36:04;;;;;;;1.5;1.5;;;;;;;8.2;100.0;102400;;;;
2022/11/13 01:37:00;;;;;;;1.5;1.5;;;;;;;8.2;100.0;102400;;;;
2022/11/13 01:38:00;;;;;;;1.5;1.5;;;;;;;8.2;100.0;102400;;;;
2022/11/13 01:39:00;;;;;;;1.5;1.5;;;;;;;8.0;100.0;102400;;;;
2022/11/13 01:40:00;;;;;;;1.5;1.5;;;;;;;8.0;100.0;102400;;;;
2022/11/13 01:41:00;;;;;;;1.5;1.5;;;;;;;8.1;100.0;102400;;;;
2022/11/13 01:42:00;;;;;;;1.5;1.5;;;;;;;8.1;100.0;102400;;;;
2022/11/13 01:43:10;;;;;;;1.5;1.5;;;;;;;8.1;100.0;102390;;;;
2022/11/13 01:44:00;;;;;;;1.5;1.5;;;;;;;8.1;100.0;102390;;;;
2022/11/13 01:45:01;;;;;;;1.5;1.5;;;;;;;8.0;100.0;102390;;;;
2022/11/13 01:46:05;;;;;;;1.5;1.5;;;;;;;8.0;100.0;102390;;;;
2022/11/13 01:47:01;;;;;;;1.5;1.5;;;;;;;8.0;100.0;102400;;;;
2022/11/13 01:48:00;;;;;;;1.5;1.5;;;;;;;8.0;100.0;102400;;;;
2022/11/13 01:49:07;;;;;;;1.5;1.5;;;;;;;8.1;100.0;102390;;;;
2022/11/13 01:50:01;;;;;;;1.5;1.5;;;;;;;8.1;100.0;102390;;;;
2022/11/13 01:51:00;;;;;;;1.5;1.5;;;;;;;8.0;100.0;102400;;;;
2022/11/13 01:52:02;;;;;;;1.5;1.5;;;;;;;8.0;100.0;102400;;;;
2022/11/13 01:53:00;;;;;;;1.5;1.5;;;;;;;7.9;100.0;102390;;;;
2022/11/13 01:54:01;;;;;;;1.5;1.5;;;;;;;7.9;100.0;102390;;;;
2022/11/13 01:55:02;;;;;;;1.3;1.3;;;;;;;7.9;100.0;102390;;;;
2022/11/13 01:56:00;;;;;;;1.3;1.3;;;;;;;7.9;100.0;102390;;;;
2022/11/13 01:57:01;;;;;;;1.3;1.3;;;;;;;7.9;100.0;102380;;;;
2022/11/13 01:58:00;;;;;;;1.3;1.3;;;;;;;7.9;100.0;102380;;;;
2022/11/13 01:59:05;;;;;;;1.3;1.3;;;;;;;7.9;100.0;102380;;;;
2022/11/13 02:00:05;;;;;;;1.3;1.3;;;;;;;7.9;100.0;102380;;;;
2022/11/13 02:01:00;;;;;;;1.3;1.3;;;;;;;7.8;100.0;102380;;;;
2022/11/13 02:02:00;;;;;;;1.3;1.3;;;;;;;7.8;100.0;102380;;;;
2022/11/13 02:03:00;;;;;;;1.3;1.3;;;;;;;8.0;100.0;102380;;;;
2022/11/13 02:04:00;;;;;;;1.3;1.3;;;;;;;8.0;100.0;102380;;;;
2022/11/13 02:05:00;;;;;;;1.3;1.3;;;;;;;7.9;100.0;102370;;;;
2022/11/13 02:06:00;;;;;;;1.3;1.3;;;;;;;7.9;100.0;102370;;;;
2022/11/13 02:07:03;;;;;;;1.3;1.3;;;;;;;7.8;100.0;102370;;;;
2022/11/13 02:08:00;;;;;;;1.3;1.3;;;;;;;7.8;100.0;102370;;;;
2022/11/13 02:09:00;;;;;;;1.3;1.3;;;;;;;7.8;100.0;102370;;;;
2022/11/13 02:10:00;;;;;;;1.3;1.3;;;;;;;7.8;100.0;102370;;;;
2022/11/13 02:11:00;;;;;;;1.3;1.3;;;;;;;7.7;100.0;102380;;;;
2022/11/13 02:12:00;;;;;;;1.3;1.3;;;;;;;7.7;100.0;102380;;;;
2022/11/13 02:13:00;;;;;;;1.3;1.3;;;;;;;7.7;100.0;102370;;;;
2022/11/13 02:14:01;;;;;;;1.3;1.3;;;;;;;7.7;100.0;102370;;;;
2022/11/13 02:15:01;;;;;;;1.5;1.5;;;;;;;7.8;100.0;102370;;;;
2022/11/13 02:16:00;;;;;;;1.5;1.5;;;;;;;7.8;100.0;102370;;;;
2022/11/13 02:17:02;;;;;;;1.5;1.5;;;;;;;7.8;100.0;102370;;;;
2022/11/13 02:18:01;;;;;;;1.5;1.5;;;;;;;7.8;100.0;102370;;;;
2022/11/13 02:19:02;;;;;;;1.5;1.5;;;;;;;7.8;100.0;102360;;;;
2022/11/13 02:20:01;;;;;;;1.5;1.5;;;;;;;7.8;100.0;102360;;;;
2022/11/13 02:21:01;;;;;;;1.5;1.5;;;;;;;7.8;100.0;102360;;;;
2022/11/13 02:22:10;;;;;;;1.5;1.5;;;;;;;7.8;100.0;102360;;;;
2022/11/13 02:23:07;;;;;;;1.5;1.5;;;;;;;7.7;100.0;102360;;;;
2022/11/13 02:24:10;;;;;;;1.5;1.5;;;;;;;7.7;100.0;102360;;;;
2022/11/13 02:25:01;;;;;;;1.5;1.5;;;;;;;7.7;100.0;102360;;;;
2022/11/13 02:26:01;;;;;;;1.5;1.5;;;;;;;7.7;100.0;102360;;;;
2022/11/13 02:27:02;;;;;;;1.5;1.5;;;;;;;7.8;100.0;102360;;;;
2022/11/13 02:28:00;;;;;;;1.5;1.5;;;;;;;7.8;100.0;102360;;;;
2022/11/13 02:29:00;;;;;;;1.5;1.5;;;;;;;7.8;100.0;102360;;;;
2022/11/13 02:30:16;;;;;;;1.5;1.5;;;;;;;7.8;100.0;102360;;;;
2022/11/13 02:31:08;;;;;;;1.5;1.5;;;;;;;7.8;100.0;102350;;;;
2022/11/13 02:32:00;;;;;;;1.5;1.5;;;;;;;7.8;100.0;102350;;;;
2022/11/13 02:33:00;;;;;;;1.5;1.5;;;;;;;7.8;100.0;102360;;;;
2022/11/13 02:34:00;;;;;;;1.5;1.5;;;;;;;7.8;100.0;102360;;;;
2022/11/13 02:35:00;;;;;;;1.3;1.3;;;;;;;8.0;100.0;102360;;;;
2022/11/13 02:36:00;;;;;;;1.3;1.3;;;;;;;8.0;100.0;102360;;;;
2022/11/13 02:37:00;;;;;;;1.3;1.3;;;;;;;8.0;100.0;102360;;;;
2022/11/13 02:38:02;;;;;;;1.3;1.3;;;;;;;8.0;100.0;102360;;;;
2022/11/13 02:39:02;;;;;;;1.3;1.3;;;;;;;7.9;100.0;102350;;;;
2022/11/13 02:40:00;;;;;;;1.3;1.3;;;;;;;7.9;100.0;102350;;;;
2022/11/13 02:41:00;;;;;;;1.3;1.3;;;;;;;8.0;100.0;102350;;;;
2022/11/13 02:42:00;;;;;;;1.3;1.3;;;;;;;8.0;100.0;102350;;;;
2022/11/13 02:43:00;;;;;;;1.3;1.3;;;;;;;8.1;100.0;102350;;;;
2022/11/13 02:44:00;;;;;;;1.3;1.3;;;;;;;8.1;100.0;102350;;;;
2022/11/13 02:45:00;;;;;;;1.3;1.3;;;;;;;8.1;100.0;102350;;;;
2022/11/13 02:46:00;;;;;;;1.3;1.3;;;;;;;8.1;100.0;102350;;;;
2022/11/13 02:47:00;;;;;;;1.3;1.3;;;;;;;8.0;100.0;102350;;;;
2022/11/13 02:48:00;;;;;;;1.3;1.3;;;;;;;8.0;100.0;102350;;;;
2022/11/13 02:49:00;;;;;;;1.3;1.3;;;;;;;8.0;100.0;102350;;;;
2022/11/13 02:50:00;;;;;;;1.3;1.3;;;;;;;8.0;100.0;102350;;;;
2022/11/13 02:51:00;;;;;;;1.3;1.3;;;;;;;7.9;100.0;102350;;;;
2022/11/13 02:52:00;;;;;;;1.3;1.3;;;;;;;7.9;100.0;102350;;;;
2022/11/13 02:53:00;;;;;;;1.3;1.3;;;;;;;7.9;100.0;102350;;;;
2022/11/13 02:54:00;;;;;;;1.3;1.3;;;;;;;7.9;100.0;102350;;;;
2022/11/13 02:55:00;;;;;;;1.4;1.4;;;;;;;7.9;100.0;102340;;;;
2022/11/13 02:56:00;;;;;;;1.4;1.4;;;;;;;7.9;100.0;102340;;;;
2022/11/13 02:57:00;;;;;;;1.4;1.4;;;;;;;7.9;100.0;102340;;;;
2022/11/13 02:58:00;;;;;;;1.4;1.4;;;;;;;7.9;100.0;102340;;;;
2022/11/13 02:59:00;;;;;;;1.4;1.4;;;;;;;8.2;100.0;102350;;;;
2022/11/13 03:00:00;;;;;;;1.4;1.4;;;;;;;8.2;100.0;102350;;;;
2022/11/13 03:01:01;;;;;;;1.4;1.4;;;;;;;8.2;100.0;102340;;;;
2022/11/13 03:02:00;;;;;;;1.4;1.4;;;;;;;8.2;100.0;102340;;;;
2022/11/13 03:03:00;;;;;;;1.4;1.4;;;;;;;8.4;100.0;102340;;;;
2022/11/13 03:04:00;;;;;;;1.4;1.4;;;;;;;8.4;100.0;102340;;;;
2022/11/13 03:05:10;;;;;;;1.4;1.4;;;;;;;8.1;100.0;102340;;;;
2022/11/13 03:06:00;;;;;;;1.4;1.4;;;;;;;8.1;100.0;102340;;;;
2022/11/13 03:07:00;;;;;;;1.4;1.4;;;;;;;8.1;100.0;102340;;;;
2022/11/13 03:08:00;;;;;;;1.4;1.4;;;;;;;8.1;100.0;102340;;;;
2022/11/13 03:09:00;;;;;;;1.4;1.4;;;;;;;8.1;100.0;102340;;;;
2022/11/13 03:10:00;;;;;;;1.4;1.4;;;;;;;8.1;100.0;102340;;;;
2022/11/13 03:11:05;;;;;;;1.4;1.4;;;;;;;8.3;100.0;102340;;;;
2022/11/13 03:12:00;;;;;;;1.4;1.4;;;;;;;8.3;100.0;102340;;;;
2022/11/13 03:13:00;;;;;;;1.4;1.4;;;;;;;8.0;100.0;102350;;;;
2022/11/13 03:14:00;;;;;;;1.4;1.4;;;;;;;8.0;100.0;102350;;;;
2022/11/13 03:15:00;;;;;;;1.8;1.8;;;;;;;8.0;100.0;102350;;;;
2022/11/13 03:16:10;;;;;;;1.8;1.8;;;;;;;8.0;100.0;102350;;;;
2022/11/13 03:17:00;;;;;;;1.8;1.8;;;;;;;8.0;100.0;102350;;;;
2022/11/13 03:18:02;;;;;;;1.8;1.8;;;;;;;8.0;100.0;102350;;;;
2022/11/13 03:19:00;;;;;;;1.8;1.8;;;;;;;8.1;100.0;102340;;;;
2022/11/13 03:20:00;;;;;;;1.8;1.8;;;;;;;8.1;100.0;102340;;;;
2022/11/13 03:21:04;;;;;;;1.8;1.8;;;;;;;8.3;100.0;102340;;;;
2022/11/13 03:22:00;;;;;;;1.8;1.8;;;;;;;8.3;100.0;102340;;;;
2022/11/13 03:23:00;;;;;;;1.8;1.8;;;;;;;8.0;100.0;102330;;;;
2022/11/13 03:24:00;;;;;;;1.8;1.8;;;;;;;8.0;100.0;102330;;;;
2022/11/13 03:25:00;;;;;;;1.8;1.8;;;;;;;8.1;100.0;102330;;;;
2022/11/13 03:26:02;;;;;;;1.8;1.8;;;;;;;8.1;100.0;102330;;;;
2022/11/13 03:27:00;;;;;;;1.8;1.8;;;;;;;8.0;100.0;102330;;;;
2022/11/13 03:28:00;;;;;;;1.8;1.8;;;;;;;8.0;100.0;102330;;;;
2022/11/13 03:29:00;;;;;;;1.8;1.8;;;;;;;7.9;100.0;102330;;;;
2022/11/13 03:30:00;;;;;;;1.8;1.8;;;;;;;7.9;100.0;102330;;;;
2022/11/13 03:31:00;;;;;;;1.8;1.8;;;;;;;7.9;100.0;102330;;;;
2022/11/13 03:32:02;;;;;;;1.8;1.8;;;;;;;7.9;100.0;102330;;;;
2022/11/13 03:33:00;;;;;;;1.8;1.8;;;;;;;7.9;100.0;102320;;;;
2022/11/13 03:34:00;;;;;;;1.8;1.8;;;;;;;7.9;100.0;102320;;;;
2022/11/13 03:35:00;;;;;;;1.3;1.3;;;;;;;8.0;100.0;102320;;;;
2022/11/13 03:36:00;;;;;;;1.3;1.3;;;;;;;8.0;100.0;102320;;;;
2022/11/13 03:37:00;;;;;;;1.3;1.3;;;;;;;8.1;100.0;102310;;;;
2022/11/13 03:38:00;;;;;;;1.3;1.3;;;;;;;8.1;100.0;102310;;;;
2022/11/13 03:39:00;;;;;;;1.3;1.3;;;;;;;7.9;100.0;102310;;;;
2022/11/13 03:40:00;;;;;;;1.3;1.3;;;;;;;7.9;100.0;102310;;;;
2022/11/13 03:41:00;;;;;;;1.3;1.3;;;;;;;7.9;100.0;102310;;;;
2022/11/13 03:42:00;;;;;;;1.3;1.3;;;;;;;7.9;100.0;102310;;;;
2022/11/13 03:43:00;;;;;;;1.3;1.3;;;;;;;7.9;100.0;102310;;;;
2022/11/13 03:44:00;;;;;;;1.3;1.3;;;;;;;7.9;100.0;102310;;;;
2022/11/13 03:45:00;;;;;;;1.3;1.3;;;;;;;8.0;100.0;102310;;;;
2022/11/13 03:46:00;;;;;;;1.3;1.3;;;;;;;8.0;100.0;102310;;;;
2022/11/13 03:47:00;;;;;;;1.3;1.3;;;;;;;8.1;100.0;102310;;;;
2022/11/13 03:48:00;;;;;;;1.3;1.3;;;;;;;8.1;100.0;102310;;;;
2022/11/13 03:49:00;;;;;;;1.3;1.3;;;;;;;8.2;100.0;102310;;;;
2022/11/13 03:50:00;;;;;;;1.3;1.3;;;;;;;8.2;100.0;102310;;;;
2022/11/13 03:51:00;;;;;;;1.3;1.3;;;;;;;8.1;100.0;102310;;;;
2022/11/13 03:52:00;;;;;;;1.3;1.3;;;;;;;8.1;100.0;102310;;;;
2022/11/13 03:53:00;;;;;;;1.3;1.3;;;;;;;7.9;100.0;102310;;;;
2022/11/13 03:54:00;;;;;;;1.3;1.3;;;;;;;7.9;100.0;102310;;;;
2022/11/13 03:55:00;;;;;;;1.4;1.4;;;;;;;8.0;100.0;102300;;;;
2022/11/13 03:56:00;;;;;;;1.4;1.4;;;;;;;8.0;100.0;102300;;;;
2022/11/13 03:57:00;;;;;;;1.4;1.4;;;;;;;7.9;100.0;102300;;;;
2022/11/13 03:58:00;;;;;;;1.4;1.4;;;;;;;7.9;100.0;102300;;;;
2022/11/13 03:59:00;;;;;;;1.4;1.4;;;;;;;8.1;100.0;102290;;;;
2022/11/13 04:00:00;;;;;;;1.4;1.4;;;;;;;8.1;100.0;102290;;;;
2022/11/13 04:01:00;;;;;;;1.4;1.4;;;;;;;8.1;100.0;102290;;;;
2022/11/13 04:02:00;;;;;;;1.4;1.4;;;;;;;8.1;100.0;102290;;;;
2022/11/13 04:03:00;;;;;;;1.4;1.4;;;;;;;8.2;100.0;102290;;;;
2022/11/13 04:04:00;;;;;;;1.4;1.4;;;;;;;8.2;100.0;102290;;;;
2022/11/13 04:05:00;;;;;;;1.4;1.4;;;;;;;8.0;100.0;102290;;;;
2022/11/13 04:06:00;;;;;;;1.4;1.4;;;;;;;8.0;100.0;102290;;;;
2022/11/13 04:07:00;;;;;;;1.4;1.4;;;;;;;8.1;100.0;102280;;;;
2022/11/13 04:08:00;;;;;;;1.4;1.4;;;;;;;8.1;100.0;102280;;;;
2022/11/13 04:09:00;;;;;;;1.4;1.4;;;;;;;8.2;100.0;102280;;;;
2022/11/13 04:10:00;;;;;;;1.4;1.4;;;;;;;8.2;100.0;102280;;;;
2022/11/13 04:11:08;;;;;;;1.4;1.4;;;;;;;8.3;100.0;102280;;;;
2022/11/13 04:12:00;;;;;;;1.4;1.4;;;;;;;8.3;100.0;102280;;;;
2022/11/13 04:13:00;;;;;;;1.4;1.4;;;;;;;8.1;100.0;102280;;;;
2022/11/13 04:14:00;;;;;;;1.4;1.4;;;;;;;8.1;100.0;102280;;;;
2022/11/13 04:15:00;;;;;;;1.2;1.2;;;;;;;8.1;100.0;102280;;;;
2022/11/13 04:16:00;;;;;;;1.2;1.2;;;;;;;8.1;100.0;102280;;;;
2022/11/13 04:17:00;;;;;;;1.2;1.2;;;;;;;8.1;100.0;102280;;;;
2022/11/13 04:18:00;;;;;;;1.2;1.2;;;;;;;8.1;100.0;102280;;;;
2022/11/13 04:19:00;;;;;;;1.2;1.2;;;;;;;8.0;100.0;102280;;;;
2022/11/13 04:20:00;;;;;;;1.2;1.2;;;;;;;8.0;100.0;102280;;;;
2022/11/13 04:21:00;;;;;;;1.2;1.2;;;;;;;8.1;100.0;102280;;;;
2022/11/13 04:22:00;;;;;;;1.2;1.2;;;;;;;8.1;100.0;102280;;;;
2022/11/13 04:23:00;;;;;;;1.2;1.2;;;;;;;8.1;100.0;102280;;;;
2022/11/13 04:24:00;;;;;;;1.2;1.2;;;;;;;8.1;100.0;102280;;;;
2022/11/13 04:25:00;;;;;;;1.2;1.2;;;;;;;8.0;100.0;102270;;;;
2022/11/13 04:26:00;;;;;;;1.2;1.2;;;;;;;8.0;100.0;102270;;;;
2022/11/13 04:27:00;;;;;;;1.2;1.2;;;;;;;8.1;100.0;102270;;;;
2022/11/13 04:28:00;;;;;;;1.2;1.2;;;;;;;8.1;100.0;102270;;;;
2022/11/13 04:29:00;;;;;;;1.2;1.2;;;;;;;8.0;100.0;102260;;;;
2022/11/13 04:30:00;;;;;;;1.2;1.2;;;;;;;8.0;100.0;102260;;;;
2022/11/13 04:31:00;;;;;;;1.2;1.2;;;;;;;8.0;100.0;102260;;;;
2022/11/13 04:32:00;;;;;;;1.2;1.2;;;;;;;8.0;100.0;102260;;;;
2022/11/13 04:33:00;;;;;;;1.2;1.2;;;;;;;8.0;100.0;102260;;;;
2022/11/13 04:34:00;;;;;;;1.2;1.2;;;;;;;8.0;100.0;102260;;;;
2022/11/13 04:35:00;;;;;;;1.3;1.3;;;;;;;8.0;100.0;102260;;;;
2022/11/13 04:36:00;;;;;;;1.3;1.3;;;;;;;8.0;100.0;102260;;;;
2022/11/13 04:37:00;;;;;;;1.3;1.3;;;;;;;8.0;100.0;102260;;;;
2022/11/13 04:38:00;;;;;;;1.3;1.3;;;;;;;8.0;100.0;102260;;;;
2022/11/13 04:39:00;;;;;;;1.3;1.3;;;;;;;8.1;100.0;102250;;;;
2022/11/13 04:40:00;;;;;;;1.3;1.3;;;;;;;8.1;100.0;102250;;;;
2022/11/13 04:43:00;;;;;;;1.3;1.3;;;;;;;8.0;100.0;102250;;;;
2022/11/13 04:44:00;;;;;;;1.3;1.3;;;;;;;8.0;100.0;102250;;;;
2022/11/13 04:45:00;;;;;;;1.3;1.3;;;;;;;7.9;100.0;102250;;;;
2022/11/13 04:46:00;;;;;;;1.3;1.3;;;;;;;7.9;100.0;102250;;;;
2022/11/13 04:47:00;;;;;;;1.3;1.3;;;;;;;7.8;100.0;102250;;;;
2022/11/13 04:48:00;;;;;;;1.3;1.3;;;;;;;7.8;100.0;102250;;;;
2022/11/13 04:49:00;;;;;;;1.3;1.3;;;;;;;7.8;100.0;102240;;;;
2022/11/13 04:50:00;;;;;;;1.3;1.3;;;;;;;7.8;100.0;102240;;;;
2022/11/13 04:51:00;;;;;;;1.3;1.3;;;;;;;7.8;100.0;102250;;;;
2022/11/13 04:52:00;;;;;;;1.3;1.3;;;;;;;7.8;100.0;102250;;;;
2022/11/13 04:53:00;;;;;;;1.3;1.3;;;;;;;7.9;100.0;102240;;;;
2022/11/13 04:54:00;;;;;;;1.3;1.3;;;;;;;7.9;100.0;102240;;;;
2022/11/13 04:55:00;;;;;;;1.4;1.4;;;;;;;7.8;100.0;102240;;;;
2022/11/13 04:56:00;;;;;;;1.4;1.4;;;;;;;7.8;100.0;102240;;;;
2022/11/13 04:57:00;;;;;;;1.4;1.4;;;;;;;7.7;100.0;102250;;;;
2022/11/13 04:58:00;;;;;;;1.4;1.4;;;;;;;7.7;100.0;102250;;;;
2022/11/13 04:59:00;;;;;;;1.4;1.4;;;;;;;7.7;100.0;102240;;;;
2022/11/13 05:00:00;;;;;;;1.4;1.4;;;;;;;7.7;100.0;102240;;;;
2022/11/13 05:01:00;;;;;;;1.4;1.4;;;;;;;7.8;100.0;102240;;;;
2022/11/13 05:02:00;;;;;;;1.4;1.4;;;;;;;7.8;100.0;102240;;;;
2022/11/13 05:03:00;;;;;;;1.4;1.4;;;;;;;7.7;100.0;102240;;;;
2022/11/13 05:04:00;;;;;;;1.4;1.4;;;;;;;7.7;100.0;102240;;;;
2022/11/13 05:05:05;;;;;;;1.4;1.4;;;;;;;7.6;100.0;102240;;;;
2022/11/13 05:06:01;;;;;;;1.4;1.4;;;;;;;7.6;100.0;102240;;;;
2022/11/13 05:07:00;;;;;;;1.4;1.4;;;;;;;7.7;100.0;102240;;;;
2022/11/13 05:08:00;;;;;;;1.4;1.4;;;;;;;7.7;100.0;102240;;;;
2022/11/13 05:09:00;;;;;;;1.4;1.4;;;;;;;7.8;100.0;102230;;;;
2022/11/13 05:10:00;;;;;;;1.4;1.4;;;;;;;7.8;100.0;102230;;;;
2022/11/13 05:11:00;;;;;;;1.4;1.4;;;;;;;7.7;100.0;102240;;;;
2022/11/13 05:12:00;;;;;;;1.4;1.4;;;;;;;7.7;100.0;102240;;;;
2022/11/13 05:13:00;;;;;;;1.4;1.4;;;;;;;7.7;100.0;102240;;;;
2022/11/13 05:14:03;;;;;;;1.5;1.5;;;;;;;7.7;100.0;102240;;;;
2022/11/13 05:15:00;;;;;;;1.5;1.5;;;;;;;7.8;100.0;102230;;;;
2022/11/13 05:16:01;;;;;;;1.5;1.5;;;;;;;7.8;100.0;102230;;;;
2022/11/13 05:17:00;;;;;;;1.5;1.5;;;;;;;7.8;100.0;102230;;;;
2022/11/13 05:18:00;;;;;;;1.5;1.5;;;;;;;7.8;100.0;102230;;;;
2022/11/13 05:19:00;;;;;;;1.5;1.5;;;;;;;7.6;100.0;102230;;;;
2022/11/13 05:20:00;;;;;;;1.5;1.5;;;;;;;7.6;100.0;102230;;;;
2022/11/13 05:21:00;;;;;;;1.5;1.5;;;;;;;7.6;100.0;102230;;;;
2022/11/13 05:22:00;;;;;;;1.5;1.5;;;;;;;7.6;100.0;102230;;;;
2022/11/13 05:23:00;;;;;;;1.5;1.5;;;;;;;7.5;100.0;102220;;;;
2022/11/13 05:24:00;;;;;;;1.5;1.5;;;;;;;7.5;100.0;102220;;;;
2022/11/13 05:25:00;;;;;;;1.5;1.5;;;;;;;7.5;100.0;102220;;;;
2022/11/13 05:26:03;;;;;;;1.5;1.5;;;;;;;7.5;100.0;102220;;;;
2022/11/13 05:27:00;;;;;;;1.5;1.5;;;;;;;7.6;100.0;102220;;;;
2022/11/13 05:28:00;;;;;;;1.5;1.5;;;;;;;7.6;100.0;102220;;;;
2022/11/13 05:29:00;;;;;;;1.5;1.5;;;;;;;7.4;100.0;102220;;;;
2022/11/13 05:30:00;;;;;;;1.5;1.5;;;;;;;7.4;100.0;102220;;;;
2022/11/13 05:31:03;;;;;;;1.5;1.5;;;;;;;7.3;100.0;102210;;;;
2022/11/13 05:32:00;;;;;;;1.5;1.5;;;;;;;7.3;100.0;102210;;;;
2022/11/13 05:33:00;;;;;;;1.5;1.5;;;;;;;7.3;100.0;102220;;;;
2022/11/13 05:34:06;;;;;;;1.6;1.6;;;;;;;7.3;100.0;102220;;;;
2022/11/13 05:35:00;;;;;;;1.6;1.6;;;;;;;7.2;100.0;102210;;;;
2022/11/13 05:36:01;;;;;;;1.6;1.6;;;;;;;7.2;100.0;102210;;;;
2022/11/13 05:37:00;;;;;;;1.6;1.6;;;;;;;7.3;100.0;102210;;;;
2022/11/13 05:38:00;;;;;;;1.6;1.6;;;;;;;7.3;100.0;102210;;;;
2022/11/13 05:39:00;;;;;;;1.6;1.6;;;;;;;7.4;100.0;102210;;;;
2022/11/13 05:40:00;;;;;;;1.6;1.6;;;;;;;7.4;100.0;102210;;;;
2022/11/13 05:41:01;;;;;;;1.6;1.6;;;;;;;7.4;100.0;102200;;;;
2022/11/13 05:42:00;;;;;;;1.6;1.6;;;;;;;7.4;100.0;102200;;;;
2022/11/13 05:43:00;;;;;;;1.6;1.6;;;;;;;7.2;100.0;102200;;;;
2022/11/13 05:44:00;;;;;;;1.6;1.6;;;;;;;7.2;100.0;102200;;;;
2022/11/13 05:45:00;;;;;;;1.6;1.6;;;;;;;7.2;100.0;102200;;;;
2022/11/13 05:46:00;;;;;;;1.6;1.6;;;;;;;7.2;100.0;102200;;;;
2022/11/13 05:47:00;;;;;;;1.6;1.6;;;;;;;7.2;100.0;102200;;;;
2022/11/13 05:48:00;;;;;;;1.6;1.6;;;;;;;7.2;100.0;102200;;;;
2022/11/13 05:49:01;;;;;;;1.6;1.6;;;;;;;7.1;100.0;102190;;;;
2022/11/13 05:50:00;;;;;;;1.6;1.6;;;;;;;7.1;100.0;102190;;;;
2022/11/13 05:51:02;;;;;;;1.6;1.6;;;;;;;7.2;100.0;102190;;;;
2022/11/13 05:52:00;;;;;;;1.6;1.6;;;;;;;7.2;100.0;102190;;;;
2022/11/13 05:53:00;;;;;;;1.6;1.6;;;;;;;7.2;100.0;102190;;;;
2022/11/13 05:54:00;;;;;;;1.9;1.9;;;;;;;7.2;100.0;102190;;;;
2022/11/13 05:55:00;;;;;;;1.9;1.9;;;;;;;7.1;100.0;102190;;;;
2022/11/13 05:56:01;;;;;;;1.9;1.9;;;;;;;7.1;100.0;102190;;;;
2022/11/13 05:57:00;;;;;;;1.9;1.9;;;;;;;7.2;100.0;102190;;;;
2022/11/13 05:58:00;;;;;;;1.9;1.9;;;;;;;7.2;100.0;102190;;;;
2022/11/13 05:59:00;;;;;;;1.9;1.9;;;;;;;7.1;100.0;102190;;;;
2022/11/13 06:00:00;;;;;;;1.9;1.9;;;;;;;7.1;100.0;102190;;;;
2022/11/13 06:01:10;;;;;;;1.9;1.9;;;;;;;7.2;100.0;102190;;;;
2022/11/13 06:02:00;;;;;;;1.9;1.9;;;;;;;7.2;100.0;102190;;;;
2022/11/13 06:03:00;;;;;;;1.9;1.9;;;;;;;7.1;100.0;102180;;;;
2022/11/13 06:04:00;;;;;;;1.9;1.9;;;;;;;7.1;100.0;102180;;;;
2022/11/13 06:05:00;;;;;;;1.9;1.9;;;;;;;7.2;100.0;102180;;;;
2022/11/13 06:06:00;;;;;;;1.9;1.9;;;;;;;7.2;100.0;102180;;;;
2022/11/13 06:07:00;;;;;;;1.9;1.9;;;;;;;7.0;100.0;102190;;;;
2022/11/13 06:08:00;;;;;;;1.9;1.9;;;;;;;7.0;100.0;102190;;;;
2022/11/13 06:09:01;;;;;;;1.9;1.9;;;;;;;7.0;100.0;102190;;;;
2022/11/13 06:10:00;;;;;;;1.9;1.9;;;;;;;7.0;100.0;102190;;;;
2022/11/13 06:11:01;;;;;;;1.9;1.9;;;;;;;6.9;100.0;102190;;;;
2022/11/13 06:12:00;;;;;;;1.9;1.9;;;;;;;6.9;100.0;102190;;;;
2022/11/13 06:13:00;;;;;;;1.9;1.9;;;;;;;6.9;100.0;102190;;;;
2022/11/13 06:14:00;;;;;;;1.7;1.7;;;;;;;6.9;100.0;102190;;;;
2022/11/13 06:15:00;;;;;;;1.7;1.7;;;;;;;6.9;100.0;102180;;;;
2022/11/13 06:16:01;;;;;;;1.7;1.7;;;;;;;6.9;100.0;102180;;;;
2022/11/13 06:17:00;;;;;;;1.7;1.7;;;;;;;6.8;100.0;102180;;;;
2022/11/13 06:18:00;;;;;;;1.7;1.7;;;;;;;6.8;100.0;102180;;;;
2022/11/13 06:19:01;;;;;;;1.7;1.7;;;;;;;6.8;100.0;102180;;;;
2022/11/13 06:20:00;;;;;;;1.7;1.7;;;;;;;6.8;100.0;102180;;;;
2022/11/13 06:21:01;;;;;;;1.7;1.7;;;;;;;6.8;100.0;102180;;;;
2022/11/13 06:22:00;;;;;;;1.7;1.7;;;;;;;6.8;100.0;102180;;;;
2022/11/13 06:23:00;;;;;;;1.7;1.7;;;;;;;6.7;100.0;102180;;;;
2022/11/13 06:24:00;;;;;;;1.7;1.7;;;;;;;6.7;100.0;102180;;;;
2022/11/13 06:25:00;;;;;;;1.7;1.7;;;;;;;6.7;100.0;102180;;;;
2022/11/13 06:26:04;;;;;;;1.7;1.7;;;;;;;6.7;100.0;102180;;;;
2022/11/13 06:27:00;;;;;;;1.7;1.7;;;;;;;6.6;100.0;102180;;;;
2022/11/13 06:28:00;;;;;;;1.7;1.7;;;;;;;6.6;100.0;102180;;;;
2022/11/13 06:29:00;;;;;;;1.7;1.7;;;;;;;6.6;100.0;102180;;;;
2022/11/13 06:30:00;;;;;;;1.7;1.7;;;;;;;6.6;100.0;102180;;;;
2022/11/13 06:31:03;;;;;;;1.7;1.7;;;;;;;6.6;100.0;102180;;;;